»·PEaware :: SWA1091 KPHX-KLAS

SWA1091 :: KPHX-KLAS

FLIGHT INFORMATION

Flight Status: Arrived
Operator:
Southwest Airlines
More flights by this operator :: More flights under this callsign
Pilot: Ryan B. (8502)
Aircraft: BOEING 737-400
(B734)
More flights by this aircraft type
Origin: KPHX Phoenix Sky Harbor Intl
United States
Destination: KLAS McCarran Intl
United States
More flights between these airports :: More routes between these airports
Route: +MAYSA5 SISIE IGM TYSSN5
File this flight plan on PilotEdge
Remarks:
Altitude:
(Current/Filed)
30,000ft
Speed:
(Current/Filed)
450kts
Departed: 28-Oct-17 03:36 PM
Arrived: 28-Oct-17 04:22 PM
Distance/Time
Traveled:
222nm/0:46
Distance/Time
To Go:
Arrived

Flight Plot

Page will automatically refresh every two minutes.

Flight plan parsing failed; only flown route is shown


Map Options




Map Legend


Flown Route
Filed Route
Departure Airport
Arrival Airport
Navaid (VOR, NDB)
Fix

Horizontal Profiles

Position Reports

Time Latitude Longitude Heading Altitude Ground
Speed
28-Oct-17 15:31 33.433715 -111.998748 322 1123ft 0kts
28-Oct-17 15:32 33.433715 -111.998748 322 1123ft 0kts
28-Oct-17 15:33 33.433715 -111.998748 322 1123ft 0kts
28-Oct-17 15:34 33.433715 -111.998748 322 1123ft 0kts
28-Oct-17 15:35 33.433715 -111.998748 322 1123ft 0kts
28-Oct-17 15:36 33.433636 -111.998676 322 1123ft 2kts
28-Oct-17 15:37 33.433631 -111.998260 197 1123ft 1kts
28-Oct-17 15:38 33.433699 -111.998247 177 1123ft 0kts
28-Oct-17 15:39 33.433411 -111.998235 178 1123ft 5kts
28-Oct-17 15:40 33.432148 -112.000349 270 1123ft 19kts
28-Oct-17 15:41 33.432156 -112.011462 269 1126ft 42kts
28-Oct-17 15:42 33.432036 -112.025415 220 1115ft 17kts
28-Oct-17 15:43 33.431058 -112.006724 89 1125ft 156kts
28-Oct-17 15:44 33.433091 -111.946841 86 2730ft 197kts
28-Oct-17 15:45 33.439949 -111.873412 57 4124ft 254kts
28-Oct-17 15:46 33.508038 -111.848808 3 6268ft 276kts
28-Oct-17 15:47 33.585354 -111.842179 4 8880ft 284kts
28-Oct-17 15:48 33.665425 -111.838861 352 11165ft 301kts
28-Oct-17 15:49 33.746924 -111.873370 310 12572ft 345kts
28-Oct-17 15:50 33.807177 -111.971662 308 14124ft 377kts
28-Oct-17 15:51 33.869855 -112.074304 308 16158ft 386kts
28-Oct-17 15:52 33.933785 -112.179662 308 18048ft 396kts
28-Oct-17 15:53 33.999538 -112.287731 308 19832ft 405kts
28-Oct-17 15:54 34.077734 -112.385020 322 21459ft 410kts
28-Oct-17 15:55 34.165985 -112.473183 322 23004ft 418kts
28-Oct-17 15:56 34.255431 -112.563243 322 24448ft 425kts
28-Oct-17 15:57 34.346351 -112.655091 321 25745ft 432kts
28-Oct-17 15:58 34.438289 -112.748477 321 26955ft 439kts
28-Oct-17 15:59 34.532307 -112.844023 321 28071ft 443kts
28-Oct-17 16:00 34.623317 -112.941301 319 28115ft 436kts
28-Oct-17 16:01 34.713611 -113.039931 319 28121ft 439kts
28-Oct-17 16:02 34.804262 -113.139032 319 28099ft 439kts
28-Oct-17 16:03 34.894295 -113.238026 319 28073ft 439kts
28-Oct-17 16:04 34.984055 -113.337712 314 28049ft 437kts
28-Oct-17 16:05 35.044899 -113.466772 301 28059ft 440kts
28-Oct-17 16:06 35.104991 -113.596275 301 28045ft 440kts
28-Oct-17 16:07 35.164365 -113.724157 301 27092ft 435kts
28-Oct-17 16:08 35.222480 -113.850114 301 24718ft 417kts
28-Oct-17 16:09 35.290074 -113.963123 325 22586ft 420kts
28-Oct-17 16:10 35.382343 -114.047125 324 20112ft 402kts
28-Oct-17 16:11 35.468897 -114.127684 324 18018ft 382kts
28-Oct-17 16:12 35.551951 -114.205088 324 16019ft 380kts
28-Oct-17 16:13 35.633785 -114.281442 324 14013ft 362kts
28-Oct-17 16:14 35.713167 -114.355678 324 12192ft 356kts
28-Oct-17 16:15 35.791810 -114.406535 341 12039ft 296kts
28-Oct-17 16:16 35.868949 -114.442473 340 11980ft 295kts
28-Oct-17 16:17 35.943179 -114.477217 340 11055ft 283kts
28-Oct-17 16:18 36.016764 -114.511683 340 10138ft 282kts
28-Oct-17 16:19 36.050367 -114.590568 282 8877ft 280kts
28-Oct-17 16:20 36.065332 -114.681179 283 8015ft 244kts
28-Oct-17 16:21 36.075080 -114.764458 271 7992ft 246kts
28-Oct-17 16:22 36.073534 -114.850054 270 6503ft 249kts
28-Oct-17 16:23 36.073505 -114.931027 271 5207ft 223kts
28-Oct-17 16:24 36.073629 -115.002927 271 4040ft 197kts
28-Oct-17 16:25 36.073517 -115.064426 270 3029ft 166kts
28-Oct-17 16:26 36.073570 -115.119712 270 2225ft 159kts
28-Oct-17 16:27 36.075087 -115.151131 320 2121ft 10kts

Navigation Log

Ident Type
Flight plan parsing failed, navigation log unavailable